sensor_id;sensor_type;location;lat;lon;timestamp;pressure;altitude;pressure_sealevel;temperature;humidity
11339;BME280;5724;42.684;23.252;2023-04-22T00:01:47;94032.13;;;7.77;89.97
11339;BME280;5724;42.684;23.252;2023-04-22T00:04:13;94030.91;;;7.74;90.20
11339;BME280;5724;42.684;23.252;2023-04-22T00:06:39;94031.00;;;7.78;89.86
11339;BME280;5724;42.684;23.252;2023-04-22T00:09:04;94038.13;;;7.82;89.81
11339;BME280;5724;42.684;23.252;2023-04-22T00:11:30;94033.28;;;7.75;89.74
11339;BME280;5724;42.684;23.252;2023-04-22T00:13:55;94034.44;;;7.74;90.13
11339;BME280;5724;42.684;23.252;2023-04-22T00:16:21;94041.16;;;7.81;90.35
11339;BME280;5724;42.684;23.252;2023-04-22T00:18:47;94032.63;;;7.94;89.59
11339;BME280;5724;42.684;23.252;2023-04-22T00:21:13;94037.06;;;7.87;89.70
11339;BME280;5724;42.684;23.252;2023-04-22T00:23:38;94021.88;;;7.86;89.40
11339;BME280;5724;42.684;23.252;2023-04-22T00:26:04;94034.44;;;7.74;89.65
11339;BME280;5724;42.684;23.252;2023-04-22T00:28:30;94040.72;;;7.63;90.52
11339;BME280;5724;42.684;23.252;2023-04-22T00:30:55;94043.47;;;7.51;90.16
11339;BME280;5724;42.684;23.252;2023-04-22T00:33:23;94041.31;;;7.56;90.39
11339;BME280;5724;42.684;23.252;2023-04-22T00:35:48;94040.97;;;7.58;90.74
11339;BME280;5724;42.684;23.252;2023-04-22T00:38:14;94042.47;;;7.15;93.09
11339;BME280;5724;42.684;23.252;2023-04-22T00:40:39;94034.66;;;7.13;93.67
11339;BME280;5724;42.684;23.252;2023-04-22T00:43:05;94038.06;;;7.10;94.17
11339;BME280;5724;42.684;23.252;2023-04-22T00:45:32;94034.91;;;7.08;93.97
11339;BME280;5724;42.684;23.252;2023-04-22T00:47:58;94042.16;;;7.04;93.65
11339;BME280;5724;42.684;23.252;2023-04-22T00:50:24;94032.91;;;6.93;94.38
11339;BME280;5724;42.684;23.252;2023-04-22T00:52:50;94043.78;;;6.81;94.85
11339;BME280;5724;42.684;23.252;2023-04-22T00:55:15;94041.66;;;6.86;95.25
11339;BME280;5724;42.684;23.252;2023-04-22T00:57:41;94042.44;;;6.87;95.35
11339;BME280;5724;42.684;23.252;2023-04-22T01:00:07;94050.00;;;6.81;95.50
11339;BME280;5724;42.684;23.252;2023-04-22T01:02:36;94053.03;;;6.92;95.34
11339;BME280;5724;42.684;23.252;2023-04-22T01:05:05;94044.91;;;6.92;95.52
11339;BME280;5724;42.684;23.252;2023-04-22T01:07:33;94052.13;;;7.00;94.82
11339;BME280;5724;42.684;23.252;2023-04-22T01:09:58;94048.41;;;7.05;94.55
11339;BME280;5724;42.684;23.252;2023-04-22T01:12:24;94051.56;;;7.07;94.60
11339;BME280;5724;42.684;23.252;2023-04-22T01:14:49;94047.50;;;7.01;94.89
11339;BME280;5724;42.684;23.252;2023-04-22T01:17:15;94049.38;;;7.12;94.65
11339;BME280;5724;42.684;23.252;2023-04-22T01:19:43;94057.00;;;7.07;94.31
11339;BME280;5724;42.684;23.252;2023-04-22T01:22:11;94051.44;;;7.03;94.42
11339;BME280;5724;42.684;23.252;2023-04-22T01:24:37;94050.63;;;7.15;94.31
11339;BME280;5724;42.684;23.252;2023-04-22T01:27:03;94052.66;;;7.18;93.88
11339;BME280;5724;42.684;23.252;2023-04-22T01:29:28;94053.22;;;7.11;93.97
11339;BME280;5724;42.684;23.252;2023-04-22T01:31:54;94054.22;;;7.19;93.66
11339;BME280;5724;42.684;23.252;2023-04-22T01:34:20;94049.28;;;7.09;93.71
11339;BME280;5724;42.684;23.252;2023-04-22T01:36:46;94050.19;;;7.01;94.21
11339;BME280;5724;42.684;23.252;2023-04-22T01:39:12;94051.22;;;7.08;94.29
11339;BME280;5724;42.684;23.252;2023-04-22T01:41:37;94052.00;;;7.09;93.76
11339;BME280;5724;42.684;23.252;2023-04-22T01:44:03;94043.84;;;7.09;94.13
11339;BME280;5724;42.684;23.252;2023-04-22T01:46:29;94047.25;;;7.06;93.83
11339;BME280;5724;42.684;23.252;2023-04-22T01:48:54;94043.94;;;7.12;93.68
11339;BME280;5724;42.684;23.252;2023-04-22T01:51:20;94047.00;;;7.11;93.53
11339;BME280;5724;42.684;23.252;2023-04-22T01:53:49;94042.47;;;7.15;92.41
11339;BME280;5724;42.684;23.252;2023-04-22T01:56:15;94040.88;;;7.14;92.59
11339;BME280;5724;42.684;23.252;2023-04-22T01:58:41;94041.94;;;7.09;92.83
11339;BME280;5724;42.684;23.252;2023-04-22T02:01:08;94040.00;;;7.10;93.06
11339;BME280;5724;42.684;23.252;2023-04-22T02:03:35;94041.03;;;7.05;92.58
11339;BME280;5724;42.684;23.252;2023-04-22T02:06:00;94040.50;;;6.87;92.75
11339;BME280;5724;42.684;23.252;2023-04-22T02:08:26;94026.63;;;6.77;93.16
11339;BME280;5724;42.684;23.252;2023-04-22T02:10:51;94041.25;;;6.48;93.86
11339;BME280;5724;42.684;23.252;2023-04-22T02:13:17;94041.91;;;6.08;97.43
11339;BME280;5724;42.684;23.252;2023-04-22T02:15:42;94020.16;;;5.96;98.53
11339;BME280;5724;42.684;23.252;2023-04-22T02:18:08;94015.88;;;5.95;98.08
11339;BME280;5724;42.684;23.252;2023-04-22T02:20:34;94039.94;;;5.96;98.63
11339;BME280;5724;42.684;23.252;2023-04-22T02:23:00;94019.69;;;5.82;97.66
11339;BME280;5724;42.684;23.252;2023-04-22T02:25:27;94047.34;;;5.75;98.59
11339;BME280;5724;42.684;23.252;2023-04-22T02:27:53;94031.25;;;5.58;100.00
11339;BME280;5724;42.684;23.252;2023-04-22T02:30:18;94045.06;;;5.65;100.00
11339;BME280;5724;42.684;23.252;2023-04-22T02:32:44;94044.00;;;5.57;100.00
11339;BME280;5724;42.684;23.252;2023-04-22T02:35:10;94042.44;;;5.68;100.00
11339;BME280;5724;42.684;23.252;2023-04-22T02:37:36;94042.59;;;5.72;100.00
11339;BME280;5724;42.684;23.252;2023-04-22T02:40:03;94051.28;;;5.78;100.00
11339;BME280;5724;42.684;23.252;2023-04-22T02:42:28;94051.81;;;5.92;100.00
11339;BME280;5724;42.684;23.252;2023-04-22T02:44:54;94048.78;;;6.06;100.00
11339;BME280;5724;42.684;23.252;2023-04-22T02:47:21;94047.69;;;6.19;100.00
11339;BME280;5724;42.684;23.252;2023-04-22T02:49:46;94054.69;;;6.32;100.00
11339;BME280;5724;42.684;23.252;2023-04-22T02:52:11;94056.16;;;6.42;100.00
11339;BME280;5724;42.684;23.252;2023-04-22T02:54:37;94051.41;;;6.39;99.96
11339;BME280;5724;42.684;23.252;2023-04-22T02:57:02;94065.97;;;6.46;100.00
11339;BME280;5724;42.684;23.252;2023-04-22T02:59:29;94068.38;;;6.48;99.57
11339;BME280;5724;42.684;23.252;2023-04-22T03:01:54;94067.91;;;6.58;99.48
11339;BME280;5724;42.684;23.252;2023-04-22T03:04:20;94059.88;;;6.62;98.45
11339;BME280;5724;42.684;23.252;2023-04-22T03:06:47;94067.22;;;6.61;98.35
11339;BME280;5724;42.684;23.252;2023-04-22T03:09:13;94067.03;;;6.66;98.54
11339;BME280;5724;42.684;23.252;2023-04-22T03:11:38;94062.47;;;6.70;97.94
11339;BME280;5724;42.684;23.252;2023-04-22T03:14:04;94065.28;;;6.74;97.66
11339;BME280;5724;42.684;23.252;2023-04-22T03:16:29;94065.75;;;6.76;97.39
11339;BME280;5724;42.684;23.252;2023-04-22T03:18:55;94060.91;;;6.69;98.00
11339;BME280;5724;42.684;23.252;2023-04-22T03:21:20;94060.44;;;6.79;98.20
11339;BME280;5724;42.684;23.252;2023-04-22T03:23:46;94064.03;;;6.83;98.21
11339;BME280;5724;42.684;23.252;2023-04-22T03:26:11;94065.63;;;6.84;97.92
11339;BME280;5724;42.684;23.252;2023-04-22T03:28:38;94067.22;;;6.85;97.84
11339;BME280;5724;42.684;23.252;2023-04-22T03:31:03;94064.16;;;6.87;97.53
11339;BME280;5724;42.684;23.252;2023-04-22T03:33:29;94072.28;;;6.99;97.26
11339;BME280;5724;42.684;23.252;2023-04-22T03:35:54;94069.91;;;6.98;97.48
11339;BME280;5724;42.684;23.252;2023-04-22T03:38:20;94075.69;;;6.96;97.16
11339;BME280;5724;42.684;23.252;2023-04-22T03:40:45;94076.66;;;7.04;97.17
11339;BME280;5724;42.684;23.252;2023-04-22T03:43:11;94075.75;;;7.12;96.35
11339;BME280;5724;42.684;23.252;2023-04-22T03:45:36;94076.88;;;7.11;96.56
11339;BME280;5724;42.684;23.252;2023-04-22T03:48:02;94081.75;;;7.17;96.12
11339;BME280;5724;42.684;23.252;2023-04-22T03:50:27;94079.03;;;7.17;95.93
11339;BME280;5724;42.684;23.252;2023-04-22T03:52:53;94079.13;;;7.21;95.69
11339;BME280;5724;42.684;23.252;2023-04-22T03:55:18;94081.50;;;7.23;95.63
11339;BME280;5724;42.684;23.252;2023-04-22T03:57:44;94084.88;;;7.32;95.55
11339;BME280;5724;42.684;23.252;2023-04-22T04:00:10;94096.78;;;7.27;95.92
11339;BME280;5724;42.684;23.252;2023-04-22T04:02:35;94094.41;;;7.26;95.73
11339;BME280;5724;42.684;23.252;2023-04-22T04:05:01;94092.78;;;7.37;95.86
11339;BME280;5724;42.684;23.252;2023-04-22T04:07:26;94096.09;;;7.30;95.49
11339;BME280;5724;42.684;23.252;2023-04-22T04:09:52;94097.00;;;7.34;95.86
11339;BME280;5724;42.684;23.252;2023-04-22T04:12:17;94097.41;;;7.49;95.75
11339;BME280;5724;42.684;23.252;2023-04-22T04:14:43;94105.06;;;7.59;95.05
11339;BME280;5724;42.684;23.252;2023-04-22T04:17:08;94101.41;;;7.67;94.72
11339;BME280;5724;42.684;23.252;2023-04-22T04:19:35;94095.88;;;7.63;94.21
11339;BME280;5724;42.684;23.252;2023-04-22T04:22:01;94093.81;;;7.72;94.42
11339;BME280;5724;42.684;23.252;2023-04-22T04:24:26;94103.19;;;7.75;94.48
11339;BME280;5724;42.684;23.252;2023-04-22T04:26:52;94104.00;;;7.75;94.38
11339;BME280;5724;42.684;23.252;2023-04-22T04:29:18;94107.34;;;7.85;93.90
11339;BME280;5724;42.684;23.252;2023-04-22T04:31:44;94112.09;;;7.60;94.16
11339;BME280;5724;42.684;23.252;2023-04-22T04:34:10;94112.72;;;7.41;94.29
11339;BME280;5724;42.684;23.252;2023-04-22T04:36:36;94115.91;;;7.31;94.73
11339;BME280;5724;42.684;23.252;2023-04-22T04:39:04;94113.78;;;7.24;94.48
11339;BME280;5724;42.684;23.252;2023-04-22T04:41:30;94108.78;;;7.26;95.43
11339;BME280;5724;42.684;23.252;2023-04-22T04:43:56;94120.50;;;7.55;93.82
11339;BME280;5724;42.684;23.252;2023-04-22T04:46:25;94119.72;;;7.54;93.56
11339;BME280;5724;42.684;23.252;2023-04-22T04:48:57;94128.44;;;7.47;93.98
11339;BME280;5724;42.684;23.252;2023-04-22T04:51:23;94135.38;;;7.33;94.42
11339;BME280;5724;42.684;23.252;2023-04-22T04:53:48;94139.22;;;7.32;95.52
11339;BME280;5724;42.684;23.252;2023-04-22T04:56:13;94135.84;;;7.23;96.00
11339;BME280;5724;42.684;23.252;2023-04-22T04:58:39;94136.03;;;7.42;95.31
11339;BME280;5724;42.684;23.252;2023-04-22T05:01:04;94135.22;;;7.54;94.77
11339;BME280;5724;42.684;23.252;2023-04-22T05:03:30;94129.75;;;7.66;94.10
11339;BME280;5724;42.684;23.252;2023-04-22T05:05:56;94134.41;;;7.65;93.25
11339;BME280;5724;42.684;23.252;2023-04-22T05:08:21;94140.13;;;7.76;93.41
11339;BME280;5724;42.684;23.252;2023-04-22T05:10:47;94145.81;;;7.99;92.06
11339;BME280;5724;42.684;23.252;2023-04-22T05:13:12;94132.19;;;7.83;91.51
11339;BME280;5724;42.684;23.252;2023-04-22T05:15:38;94148.81;;;8.10;91.38
11339;BME280;5724;42.684;23.252;2023-04-22T05:18:04;94138.56;;;8.19;90.37
11339;BME280;5724;42.684;23.252;2023-04-22T05:20:29;94151.53;;;8.38;89.39
11339;BME280;5724;42.684;23.252;2023-04-22T05:22:55;94155.00;;;8.50;88.51
11339;BME280;5724;42.684;23.252;2023-04-22T05:25:20;94141.38;;;8.50;88.19
11339;BME280;5724;42.684;23.252;2023-04-22T05:27:46;94157.34;;;8.36;89.21
11339;BME280;5724;42.684;23.252;2023-04-22T05:30:11;94154.72;;;8.55;89.21
11339;BME280;5724;42.684;23.252;2023-04-22T05:32:37;94155.97;;;8.74;88.82
11339;BME280;5724;42.684;23.252;2023-04-22T05:35:02;94159.84;;;8.88;88.21
11339;BME280;5724;42.684;23.252;2023-04-22T05:37:28;94155.94;;;9.05;86.97
11339;BME280;5724;42.684;23.252;2023-04-22T05:39:53;94165.56;;;8.99;86.38
11339;BME280;5724;42.684;23.252;2023-04-22T05:42:19;94164.53;;;9.23;86.26
11339;BME280;5724;42.684;23.252;2023-04-22T05:44:44;94165.56;;;9.34;85.92
11339;BME280;5724;42.684;23.252;2023-04-22T05:47:10;94158.88;;;9.48;85.69
11339;BME280;5724;42.684;23.252;2023-04-22T05:49:35;94161.41;;;9.56;84.95
11339;BME280;5724;42.684;23.252;2023-04-22T05:52:01;94159.91;;;9.59;84.45
11339;BME280;5724;42.684;23.252;2023-04-22T05:54:27;94158.53;;;9.68;84.32
11339;BME280;5724;42.684;23.252;2023-04-22T05:56:53;94160.66;;;9.75;84.49
11339;BME280;5724;42.684;23.252;2023-04-22T05:59:20;94156.38;;;9.58;83.10
11339;BME280;5724;42.684;23.252;2023-04-22T06:01:45;94162.44;;;9.67;83.14
11339;BME280;5724;42.684;23.252;2023-04-22T06:04:11;94145.91;;;9.60;83.40
11339;BME280;5724;42.684;23.252;2023-04-22T06:06:36;94159.78;;;9.90;82.22
11339;BME280;5724;42.684;23.252;2023-04-22T06:09:02;94158.56;;;10.07;81.44
11339;BME280;5724;42.684;23.252;2023-04-22T06:11:27;94157.25;;;10.20;81.77
11339;BME280;5724;42.684;23.252;2023-04-22T06:13:53;94157.25;;;10.01;81.13
11339;BME280;5724;42.684;23.252;2023-04-22T06:16:18;94153.59;;;10.13;81.30
11339;BME280;5724;42.684;23.252;2023-04-22T06:18:44;94165.81;;;10.19;81.10
11339;BME280;5724;42.684;23.252;2023-04-22T06:21:09;94160.06;;;10.43;79.64
11339;BME280;5724;42.684;23.252;2023-04-22T06:23:35;94146.50;;;10.27;80.19
11339;BME280;5724;42.684;23.252;2023-04-22T06:26:00;94158.38;;;10.58;79.75
11339;BME280;5724;42.684;23.252;2023-04-22T06:28:27;94155.47;;;10.70;78.72
11339;BME280;5724;42.684;23.252;2023-04-22T06:30:52;94164.28;;;10.83;77.71
11339;BME280;5724;42.684;23.252;2023-04-22T06:33:18;94162.28;;;10.80;77.04
11339;BME280;5724;42.684;23.252;2023-04-22T06:35:44;94156.38;;;10.55;78.28
11339;BME280;5724;42.684;23.252;2023-04-22T06:38:09;94158.56;;;10.46;77.64
11339;BME280;5724;42.684;23.252;2023-04-22T06:40:35;94158.75;;;10.79;77.08
11339;BME280;5724;42.684;23.252;2023-04-22T06:43:01;94164.69;;;11.08;75.77
11339;BME280;5724;42.684;23.252;2023-04-22T06:45:26;94164.28;;;11.06;75.78
11339;BME280;5724;42.684;23.252;2023-04-22T06:47:52;94162.69;;;11.05;75.12
11339;BME280;5724;42.684;23.252;2023-04-22T06:50:20;94163.81;;;11.27;75.16
11339;BME280;5724;42.684;23.252;2023-04-22T06:52:46;94159.91;;;11.51;74.33
11339;BME280;5724;42.684;23.252;2023-04-22T06:55:11;94168.38;;;11.68;73.50
11339;BME280;5724;42.684;23.252;2023-04-22T06:57:37;94176.09;;;11.36;73.91
11339;BME280;5724;42.684;23.252;2023-04-22T07:00:06;94168.59;;;10.84;74.83
11339;BME280;5724;42.684;23.252;2023-04-22T07:02:34;94175.81;;;10.96;74.09
11339;BME280;5724;42.684;23.252;2023-04-22T07:05:00;94169.53;;;11.18;73.65
11339;BME280;5724;42.684;23.252;2023-04-22T07:07:25;94173.47;;;11.43;73.17
11339;BME280;5724;42.684;23.252;2023-04-22T07:09:51;94179.97;;;11.35;73.90
11339;BME280;5724;42.684;23.252;2023-04-22T07:12:16;94177.69;;;11.67;73.64
11339;BME280;5724;42.684;23.252;2023-04-22T07:14:45;94179.66;;;11.93;72.82
11339;BME280;5724;42.684;23.252;2023-04-22T07:17:11;94176.09;;;11.89;72.56
11339;BME280;5724;42.684;23.252;2023-04-22T07:19:37;94145.56;;;11.87;72.46
11339;BME280;5724;42.684;23.252;2023-04-22T07:22:03;94162.19;;;11.75;71.98
11339;BME280;5724;42.684;23.252;2023-04-22T07:24:29;94184.50;;;12.03;70.97
11339;BME280;5724;42.684;23.252;2023-04-22T07:26:55;94184.75;;;12.25;70.05
11339;BME280;5724;42.684;23.252;2023-04-22T07:29:20;94182.09;;;11.98;68.97
11339;BME280;5724;42.684;23.252;2023-04-22T07:31:46;94182.16;;;12.06;69.04
11339;BME280;5724;42.684;23.252;2023-04-22T07:34:11;94182.50;;;12.34;68.83
11339;BME280;5724;42.684;23.252;2023-04-22T07:36:38;94184.66;;;12.48;67.14
11339;BME280;5724;42.684;23.252;2023-04-22T07:39:04;94182.75;;;12.22;68.25
11339;BME280;5724;42.684;23.252;2023-04-22T07:41:29;94176.69;;;12.36;68.03
11339;BME280;5724;42.684;23.252;2023-04-22T07:43:55;94182.69;;;12.48;67.14
11339;BME280;5724;42.684;23.252;2023-04-22T07:46:21;94187.16;;;12.64;67.24
11339;BME280;5724;42.684;23.252;2023-04-22T07:48:47;94178.00;;;12.86;66.69
11339;BME280;5724;42.684;23.252;2023-04-22T07:51:12;94186.50;;;13.14;65.27
11339;BME280;5724;42.684;23.252;2023-04-22T07:53:38;94177.34;;;13.44;65.19
11339;BME280;5724;42.684;23.252;2023-04-22T07:56:03;94183.22;;;13.42;63.99
11339;BME280;5724;42.684;23.252;2023-04-22T07:58:29;94180.91;;;13.48;63.32
11339;BME280;5724;42.684;23.252;2023-04-22T08:00:54;94175.06;;;13.53;63.09
11339;BME280;5724;42.684;23.252;2023-04-22T08:03:20;94176.50;;;13.98;62.09
11339;BME280;5724;42.684;23.252;2023-04-22T08:05:46;94172.28;;;14.15;61.51
11339;BME280;5724;42.684;23.252;2023-04-22T08:08:11;94170.28;;;14.09;62.47
11339;BME280;5724;42.684;23.252;2023-04-22T08:10:37;94170.00;;;14.31;61.85
11339;BME280;5724;42.684;23.252;2023-04-22T08:13:02;94157.84;;;14.32;60.12
11339;BME280;5724;42.684;23.252;2023-04-22T08:15:28;94162.91;;;14.27;59.08
11339;BME280;5724;42.684;23.252;2023-04-22T08:17:53;94166.97;;;14.51;59.26
11339;BME280;5724;42.684;23.252;2023-04-22T08:20:19;94162.25;;;14.55;57.89
11339;BME280;5724;42.684;23.252;2023-04-22T08:22:44;94163.91;;;14.88;56.90
11339;BME280;5724;42.684;23.252;2023-04-22T08:25:11;94161.16;;;14.77;57.29
11339;BME280;5724;42.684;23.252;2023-04-22T08:27:37;94156.78;;;14.58;57.33
11339;BME280;5724;42.684;23.252;2023-04-22T08:30:04;94165.44;;;14.60;58.59
11339;BME280;5724;42.684;23.252;2023-04-22T08:32:30;94156.03;;;14.79;57.22
11339;BME280;5724;42.684;23.252;2023-04-22T08:34:55;94160.38;;;14.91;56.83
11339;BME280;5724;42.684;23.252;2023-04-22T08:37:21;94153.69;;;14.96;56.21
11339;BME280;5724;42.684;23.252;2023-04-22T08:39:46;94148.63;;;15.19;55.58
11339;BME280;5724;42.684;23.252;2023-04-22T08:42:12;94145.06;;;15.22;55.02
11339;BME280;5724;42.684;23.252;2023-04-22T08:44:38;94136.03;;;15.46;55.96
11339;BME280;5724;42.684;23.252;2023-04-22T08:47:04;94141.53;;;15.07;54.29
11339;BME280;5724;42.684;23.252;2023-04-22T08:49:30;94130.91;;;14.95;53.73
11339;BME280;5724;42.684;23.252;2023-04-22T08:51:56;94132.13;;;15.26;53.81
11339;BME280;5724;42.684;23.252;2023-04-22T08:54:24;94128.56;;;15.36;54.09
11339;BME280;5724;42.684;23.252;2023-04-22T08:56:50;94130.91;;;15.73;54.42
11339;BME280;5724;42.684;23.252;2023-04-22T08:59:16;94130.84;;;15.91;53.07
11339;BME280;5724;42.684;23.252;2023-04-22T09:01:43;94137.56;;;15.80;52.07
11339;BME280;5724;42.684;23.252;2023-04-22T09:04:09;94135.63;;;15.48;53.42
11339;BME280;5724;42.684;23.252;2023-04-22T09:06:36;94128.53;;;15.51;52.70
11339;BME280;5724;42.684;23.252;2023-04-22T09:09:02;94123.84;;;15.65;52.21
11339;BME280;5724;42.684;23.252;2023-04-22T09:11:29;94133.69;;;15.66;51.59
11339;BME280;5724;42.684;23.252;2023-04-22T09:13:55;94125.38;;;15.59;51.14
11339;BME280;5724;42.684;23.252;2023-04-22T09:16:21;94124.63;;;15.69;50.90
11339;BME280;5724;42.684;23.252;2023-04-22T09:18:49;94128.53;;;15.79;50.64
11339;BME280;5724;42.684;23.252;2023-04-22T09:21:14;94123.06;;;14.97;52.02
11339;BME280;5724;42.684;23.252;2023-04-22T09:23:51;94126.78;;;14.25;52.23
11339;BME280;5724;42.684;23.252;2023-04-22T09:26:21;94119.13;;;14.91;51.73
11339;BME280;5724;42.684;23.252;2023-04-22T09:28:55;94095.16;;;15.13;52.46
11339;BME280;5724;42.684;23.252;2023-04-22T09:31:26;94112.81;;;15.62;51.63
11339;BME280;5724;42.684;23.252;2023-04-22T09:33:54;94114.38;;;15.52;51.92
11339;BME280;5724;42.684;23.252;2023-04-22T09:36:30;94101.28;;;16.06;50.10
11339;BME280;5724;42.684;23.252;2023-04-22T09:39:01;94103.66;;;16.08;49.22
11339;BME280;5724;42.684;23.252;2023-04-22T09:41:30;94098.69;;;15.38;48.92
11339;BME280;5724;42.684;23.252;2023-04-22T09:44:01;94093.94;;;15.74;49.73
11339;BME280;5724;42.684;23.252;2023-04-22T09:46:28;94097.41;;;15.93;48.90
11339;BME280;5724;42.684;23.252;2023-04-22T09:48:54;94095.41;;;15.97;49.15
11339;BME280;5724;42.684;23.252;2023-04-22T09:51:20;94086.75;;;15.98;49.60
11339;BME280;5724;42.684;23.252;2023-04-22T09:54:06;94086.75;;;15.98;46.93
11339;BME280;5724;42.684;23.252;2023-04-22T09:56:51;94092.50;;;16.36;46.62
11339;BME280;5724;42.684;23.252;2023-04-22T09:59:25;94084.81;;;16.76;47.10
11339;BME280;5724;42.684;23.252;2023-04-22T10:01:55;94094.78;;;17.14;43.14
11339;BME280;5724;42.684;23.252;2023-04-22T10:04:21;94089.69;;;17.54;44.71
11339;BME280;5724;42.684;23.252;2023-04-22T10:06:50;94063.63;;;17.59;43.01
11339;BME280;5724;42.684;23.252;2023-04-22T10:09:20;94080.19;;;17.14;45.76
11339;BME280;5724;42.684;23.252;2023-04-22T10:11:47;94069.97;;;17.11;47.66
11339;BME280;5724;42.684;23.252;2023-04-22T10:14:14;94075.69;;;16.13;47.19
11339;BME280;5724;42.684;23.252;2023-04-22T10:16:42;94075.03;;;15.73;47.40
11339;BME280;5724;42.684;23.252;2023-04-22T10:19:13;94060.09;;;15.53;47.86
11339;BME280;5724;42.684;23.252;2023-04-22T10:21:41;94064.88;;;15.20;46.18
11339;BME280;5724;42.684;23.252;2023-04-22T10:24:15;94063.31;;;14.69;46.58
11339;BME280;5724;42.684;23.252;2023-04-22T10:26:52;94066.84;;;15.09;47.15
11339;BME280;5724;42.684;23.252;2023-04-22T10:29:20;94066.84;;;14.98;46.65
11339;BME280;5724;42.684;23.252;2023-04-22T10:32:03;94056.19;;;15.39;46.59
11339;BME280;5724;42.684;23.252;2023-04-22T10:34:30;94058.59;;;15.20;45.71
11339;BME280;5724;42.684;23.252;2023-04-22T10:37:05;94062.91;;;15.03;47.35
11339;BME280;5724;42.684;23.252;2023-04-22T10:39:31;94057.38;;;15.31;45.40
11339;BME280;5724;42.684;23.252;2023-04-22T10:42:08;94055.00;;;15.62;45.13
11339;BME280;5724;42.684;23.252;2023-04-22T10:47:30;94049.88;;;15.60;43.85
11339;BME280;5724;42.684;23.252;2023-04-22T10:50:24;94056.97;;;15.65;43.39
11339;BME280;5724;42.684;23.252;2023-04-22T10:53:35;94054.19;;;15.51;43.66
11339;BME280;5724;42.684;23.252;2023-04-22T10:56:01;94048.94;;;16.06;43.15
11339;BME280;5724;42.684;23.252;2023-04-22T10:58:40;94037.69;;;16.45;43.65
11339;BME280;5724;42.684;23.252;2023-04-22T11:01:14;94039.63;;;16.52;42.17
11339;BME280;5724;42.684;23.252;2023-04-22T11:03:39;94043.75;;;16.19;42.02
11339;BME280;5724;42.684;23.252;2023-04-22T11:06:16;94036.84;;;16.55;42.56
11339;BME280;5724;42.684;23.252;2023-04-22T11:08:47;94050.25;;;15.69;43.11
11339;BME280;5724;42.684;23.252;2023-04-22T11:11:13;94052.28;;;15.37;43.63
11339;BME280;5724;42.684;23.252;2023-04-22T11:13:41;94043.16;;;15.72;43.14
11339;BME280;5724;42.684;23.252;2023-04-22T11:16:10;94047.72;;;16.14;41.99
11339;BME280;5724;42.684;23.252;2023-04-22T11:18:36;94048.75;;;16.38;42.36
11339;BME280;5724;42.684;23.252;2023-04-22T11:21:03;94055.66;;;16.75;41.86
11339;BME280;5724;42.684;23.252;2023-04-22T11:23:30;94051.00;;;16.57;42.83
11339;BME280;5724;42.684;23.252;2023-04-22T11:26:01;94046.50;;;16.19;43.93
11339;BME280;5724;42.684;23.252;2023-04-22T11:28:27;94055.91;;;16.32;43.36
11339;BME280;5724;42.684;23.252;2023-04-22T11:31:02;94067.69;;;16.36;43.06
11339;BME280;5724;42.684;23.252;2023-04-22T11:33:28;94071.16;;;16.47;44.93
11339;BME280;5724;42.684;23.252;2023-04-22T11:35:53;94053.84;;;16.47;45.58
11339;BME280;5724;42.684;23.252;2023-04-22T11:38:19;94077.97;;;16.32;45.25
11339;BME280;5724;42.684;23.252;2023-04-22T11:40:45;94089.66;;;16.54;45.32
11339;BME280;5724;42.684;23.252;2023-04-22T11:43:10;94077.72;;;16.75;46.81
11339;BME280;5724;42.684;23.252;2023-04-22T11:45:37;94084.69;;;16.20;45.57
11339;BME280;5724;42.684;23.252;2023-04-22T11:48:05;94087.13;;;16.00;47.11
11339;BME280;5724;42.684;23.252;2023-04-22T11:50:37;94091.38;;;16.19;48.35
11339;BME280;5724;42.684;23.252;2023-04-22T11:55:39;94089.41;;;16.23;47.71
11339;BME280;5724;42.684;23.252;2023-04-22T12:05:43;94096.00;;;16.40;49.99
11339;BME280;5724;42.684;23.252;2023-04-22T12:08:17;94103.19;;;16.27;49.65
11339;BME280;5724;42.684;23.252;2023-04-22T12:13:22;94113.16;;;15.89;51.69
11339;BME280;5724;42.684;23.252;2023-04-22T12:15:52;94124.25;;;15.60;52.66
11339;BME280;5724;42.684;23.252;2023-04-22T12:18:54;94119.50;;;14.82;54.43
11339;BME280;5724;42.684;23.252;2023-04-22T12:21:24;94122.66;;;15.45;54.85
11339;BME280;5724;42.684;23.252;2023-04-22T12:23:52;94120.69;;;15.38;52.63
11339;BME280;5724;42.684;23.252;2023-04-22T12:26:22;94117.53;;;15.47;52.60
11339;BME280;5724;42.684;23.252;2023-04-22T12:28:49;94119.06;;;14.48;53.98
11339;BME280;5724;42.684;23.252;2023-04-22T12:31:16;94121.03;;;14.66;55.67
11339;BME280;5724;42.684;23.252;2023-04-22T12:33:42;94120.53;;;14.35;55.75
11339;BME280;5724;42.684;23.252;2023-04-22T12:36:08;94109.69;;;14.88;54.06
11339;BME280;5724;42.684;23.252;2023-04-22T12:38:34;94112.59;;;14.05;55.07
11339;BME280;5724;42.684;23.252;2023-04-22T12:41:01;94114.06;;;13.85;56.61
11339;BME280;5724;42.684;23.252;2023-04-22T12:43:26;94117.41;;;14.37;55.46
11339;BME280;5724;42.684;23.252;2023-04-22T12:45:52;94118.94;;;14.23;57.37
11339;BME280;5724;42.684;23.252;2023-04-22T12:48:17;94099.34;;;14.36;56.50
11339;BME280;5724;42.684;23.252;2023-04-22T12:50:43;94116.91;;;14.06;55.47
11339;BME280;5724;42.684;23.252;2023-04-22T12:53:09;94109.00;;;13.90;54.99
11339;BME280;5724;42.684;23.252;2023-04-22T12:55:35;94104.94;;;14.60;54.77
11339;BME280;5724;42.684;23.252;2023-04-22T12:58:00;94106.94;;;15.31;54.89
11339;BME280;5724;42.684;23.252;2023-04-22T13:00:26;94114.00;;;15.50;53.07
11339;BME280;5724;42.684;23.252;2023-04-22T13:02:52;94110.06;;;15.76;51.74
11339;BME280;5724;42.684;23.252;2023-04-22T13:05:18;94114.38;;;15.84;51.21
11339;BME280;5724;42.684;23.252;2023-04-22T13:07:44;94105.75;;;15.11;50.64
11339;BME280;5724;42.684;23.252;2023-04-22T13:10:12;94105.72;;;14.75;51.98
11339;BME280;5724;42.684;23.252;2023-04-22T13:12:38;94101.84;;;15.08;50.59
11339;BME280;5724;42.684;23.252;2023-04-22T13:15:04;94104.97;;;15.28;50.51
11339;BME280;5724;42.684;23.252;2023-04-22T13:17:31;94103.38;;;15.63;51.37
11339;BME280;5724;42.684;23.252;2023-04-22T13:19:56;94095.13;;;15.56;49.70